sensor_id;sensor_type;location;lat;lon;timestamp;temperature;humidity
13796;SHT30;40911;51.552;9.874;2023-04-06T00:06:06;0.54;78.20
13796;SHT30;40911;51.552;9.874;2023-04-06T00:08:27;0.40;78.66
13796;SHT30;40911;51.552;9.874;2023-04-06T00:10:49;0.49;78.37
13796;SHT30;40911;51.552;9.874;2023-04-06T00:13:11;0.46;78.29
13796;SHT30;40911;51.552;9.874;2023-04-06T00:15:32;0.49;77.90
13796;SHT30;40911;51.552;9.874;2023-04-06T00:17:55;0.44;78.31
13796;SHT30;40911;51.552;9.874;2023-04-06T00:20:17;0.44;78.45
13796;SHT30;40911;51.552;9.874;2023-04-06T00:22:40;0.37;78.62
13796;SHT30;40911;51.552;9.874;2023-04-06T00:25:02;0.28;79.47
13796;SHT30;40911;51.552;9.874;2023-04-06T00:27:23;0.30;78.75
13796;SHT30;40911;51.552;9.874;2023-04-06T00:29:45;0.14;78.66
13796;SHT30;40911;51.552;9.874;2023-04-06T00:32:07;0.11;79.84
13796;SHT30;40911;51.552;9.874;2023-04-06T00:34:28;0.20;79.28
13796;SHT30;40911;51.552;9.874;2023-04-06T00:36:50;0.21;79.04
13796;SHT30;40911;51.552;9.874;2023-04-06T00:39:13;0.17;79.27
13796;SHT30;40911;51.552;9.874;2023-04-06T00:41:34;0.20;79.05
13796;SHT30;40911;51.552;9.874;2023-04-06T00:43:56;0.11;78.96
13796;SHT30;40911;51.552;9.874;2023-04-06T00:46:18;0.16;78.65
13796;SHT30;40911;51.552;9.874;2023-04-06T00:48:39;0.09;78.71
13796;SHT30;40911;51.552;9.874;2023-04-06T00:51:01;-0.04;79.32
13796;SHT30;40911;51.552;9.874;2023-04-06T00:53:23;-0.07;79.40
13796;SHT30;40911;51.552;9.874;2023-04-06T00:55:47;0.04;78.72
13796;SHT30;40911;51.552;9.874;2023-04-06T00:58:08;-0.03;79.01
13796;SHT30;40911;51.552;9.874;2023-04-06T01:00:30;-0.03;79.29
13796;SHT30;40911;51.552;9.874;2023-04-06T01:02:52;-0.02;79.43
13796;SHT30;40911;51.552;9.874;2023-04-06T01:05:14;-0.04;79.06
13796;SHT30;40911;51.552;9.874;2023-04-06T01:07:36;-0.42;80.95
13796;SHT30;40911;51.552;9.874;2023-04-06T01:09:57;-0.25;80.66
13796;SHT30;40911;51.552;9.874;2023-04-06T01:12:20;-0.34;80.51
13796;SHT30;40911;51.552;9.874;2023-04-06T01:14:42;-0.11;79.59
13796;SHT30;40911;51.552;9.874;2023-04-06T01:17:03;-0.10;79.44
13796;SHT30;40911;51.552;9.874;2023-04-06T01:19:25;-0.30;79.98
13796;SHT30;40911;51.552;9.874;2023-04-06T01:21:47;-0.38;80.65
13796;SHT30;40911;51.552;9.874;2023-04-06T01:24:10;-0.42;80.53
13796;SHT30;40911;51.552;9.874;2023-04-06T01:26:32;-0.31;79.91
13796;SHT30;40911;51.552;9.874;2023-04-06T01:28:54;-0.25;79.89
13796;SHT30;40911;51.552;9.874;2023-04-06T01:31:16;-0.41;80.49
13796;SHT30;40911;51.552;9.874;2023-04-06T01:33:37;-0.58;81.83
13796;SHT30;40911;51.552;9.874;2023-04-06T01:35:59;-0.41;80.61
13796;SHT30;40911;51.552;9.874;2023-04-06T01:38:21;-0.38;80.50
13796;SHT30;40911;51.552;9.874;2023-04-06T01:40:44;-0.34;80.19
13796;SHT30;40911;51.552;9.874;2023-04-06T01:43:05;-0.62;81.92
13796;SHT30;40911;51.552;9.874;2023-04-06T01:45:27;-0.48;80.91
13796;SHT30;40911;51.552;9.874;2023-04-06T01:47:48;-0.58;81.47
13796;SHT30;40911;51.552;9.874;2023-04-06T01:50:10;-0.55;81.07
13796;SHT30;40911;51.552;9.874;2023-04-06T01:52:33;-0.51;81.36
13796;SHT30;40911;51.552;9.874;2023-04-06T01:54:54;-0.44;80.73
13796;SHT30;40911;51.552;9.874;2023-04-06T01:57:17;-0.68;82.11
13796;SHT30;40911;51.552;9.874;2023-04-06T01:59:38;-0.52;81.61
13796;SHT30;40911;51.552;9.874;2023-04-06T02:02:00;-0.45;81.14
13796;SHT30;40911;51.552;9.874;2023-04-06T02:04:22;-0.62;81.81
13796;SHT30;40911;51.552;9.874;2023-04-06T02:06:43;-0.55;81.32
13796;SHT30;40911;51.552;9.874;2023-04-06T02:09:05;-0.69;82.11
13796;SHT30;40911;51.552;9.874;2023-04-06T02:11:26;-0.84;82.67
13796;SHT30;40911;51.552;9.874;2023-04-06T02:13:49;-0.70;81.78
13796;SHT30;40911;51.552;9.874;2023-04-06T02:16:11;-0.69;81.90
13796;SHT30;40911;51.552;9.874;2023-04-06T02:18:32;-0.70;82.02
13796;SHT30;40911;51.552;9.874;2023-04-06T02:20:54;-0.86;81.90
13796;SHT30;40911;51.552;9.874;2023-04-06T02:23:15;-0.69;81.68
13796;SHT30;40911;51.552;9.874;2023-04-06T02:25:37;-0.70;81.23
13796;SHT30;40911;51.552;9.874;2023-04-06T02:27:58;-0.83;81.74
13796;SHT30;40911;51.552;9.874;2023-04-06T02:30:21;-0.86;82.00
13796;SHT30;40911;51.552;9.874;2023-04-06T02:32:43;-0.90;82.47
13796;SHT30;40911;51.552;9.874;2023-04-06T02:35:05;-0.97;83.04
13796;SHT30;40911;51.552;9.874;2023-04-06T02:37:26;-0.93;82.99
13796;SHT30;40911;51.552;9.874;2023-04-06T02:39:48;-1.01;83.33
13796;SHT30;40911;51.552;9.874;2023-04-06T02:42:10;-1.04;82.98
13796;SHT30;40911;51.552;9.874;2023-04-06T02:44:31;-1.01;82.65
13796;SHT30;40911;51.552;9.874;2023-04-06T02:46:54;-1.11;83.22
13796;SHT30;40911;51.552;9.874;2023-04-06T02:49:16;-1.10;83.36
13796;SHT30;40911;51.552;9.874;2023-04-06T02:51:37;-1.07;82.99
13796;SHT30;40911;51.552;9.874;2023-04-06T02:53:59;-1.01;82.68
13796;SHT30;40911;51.552;9.874;2023-04-06T02:56:21;-1.10;83.73
13796;SHT30;40911;51.552;9.874;2023-04-06T02:58:42;-1.18;83.69
13796;SHT30;40911;51.552;9.874;2023-04-06T03:01:04;-1.23;84.22
13796;SHT30;40911;51.552;9.874;2023-04-06T03:03:27;-1.09;82.89
13796;SHT30;40911;51.552;9.874;2023-04-06T03:05:48;-0.94;82.55
13796;SHT30;40911;51.552;9.874;2023-04-06T03:08:10;-1.17;82.89
13796;SHT30;40911;51.552;9.874;2023-04-06T03:10:31;-1.21;83.24
13796;SHT30;40911;51.552;9.874;2023-04-06T03:12:53;-1.30;83.82
13796;SHT30;40911;51.552;9.874;2023-04-06T03:15:14;-1.42;84.42
13796;SHT30;40911;51.552;9.874;2023-04-06T03:17:36;-1.24;83.61
13796;SHT30;40911;51.552;9.874;2023-04-06T03:19:59;-1.25;83.76
13796;SHT30;40911;51.552;9.874;2023-04-06T03:22:20;-1.25;83.97
13796;SHT30;40911;51.552;9.874;2023-04-06T03:24:42;-1.11;82.85
13796;SHT30;40911;51.552;9.874;2023-04-06T03:27:03;-1.21;83.69
13796;SHT30;40911;51.552;9.874;2023-04-06T03:29:26;-1.16;83.93
13796;SHT30;40911;51.552;9.874;2023-04-06T03:31:48;-1.00;82.67
13796;SHT30;40911;51.552;9.874;2023-04-06T03:34:09;-1.25;83.33
13796;SHT30;40911;51.552;9.874;2023-04-06T03:36:33;-1.37;84.13
13796;SHT30;40911;51.552;9.874;2023-04-06T03:38:55;-1.70;86.10
13796;SHT30;40911;51.552;9.874;2023-04-06T03:41:17;-1.49;84.85
13796;SHT30;40911;51.552;9.874;2023-04-06T03:43:38;-1.37;83.90
13796;SHT30;40911;51.552;9.874;2023-04-06T03:46:00;-1.30;83.48
13796;SHT30;40911;51.552;9.874;2023-04-06T03:48:21;-1.38;84.20
13796;SHT30;40911;51.552;9.874;2023-04-06T03:50:43;-1.44;84.48
13796;SHT30;40911;51.552;9.874;2023-04-06T03:53:06;-1.47;84.41
13796;SHT30;40911;51.552;9.874;2023-04-06T03:55:29;-1.44;83.61
13796;SHT30;40911;51.552;9.874;2023-04-06T03:57:50;-1.60;84.30
13796;SHT30;40911;51.552;9.874;2023-04-06T04:00:12;-1.75;85.98
13796;SHT30;40911;51.552;9.874;2023-04-06T04:02:35;-1.80;86.04
13796;SHT30;40911;51.552;9.874;2023-04-06T04:04:56;-1.69;84.43
13796;SHT30;40911;51.552;9.874;2023-04-06T04:07:18;-1.59;84.35
13796;SHT30;40911;51.552;9.874;2023-04-06T04:09:41;-1.69;84.39
13796;SHT30;40911;51.552;9.874;2023-04-06T04:12:02;-1.76;85.39
13796;SHT30;40911;51.552;9.874;2023-04-06T04:14:24;-1.65;84.36
13796;SHT30;40911;51.552;9.874;2023-04-06T04:16:46;-1.75;84.47
13796;SHT30;40911;51.552;9.874;2023-04-06T04:19:07;-1.62;84.07
13796;SHT30;40911;51.552;9.874;2023-04-06T04:21:29;-1.97;85.82
13796;SHT30;40911;51.552;9.874;2023-04-06T04:23:51;-1.89;85.66
13796;SHT30;40911;51.552;9.874;2023-04-06T04:26:14;-1.75;84.80
13796;SHT30;40911;51.552;9.874;2023-04-06T04:28:36;-1.65;84.44
13796;SHT30;40911;51.552;9.874;2023-04-06T04:30:58;-1.72;84.56
13796;SHT30;40911;51.552;9.874;2023-04-06T04:33:19;-1.66;84.19
13796;SHT30;40911;51.552;9.874;2023-04-06T04:35:41;-1.62;83.96
13796;SHT30;40911;51.552;9.874;2023-04-06T04:38:02;-1.93;85.25
13796;SHT30;40911;51.552;9.874;2023-04-06T04:40:24;-1.93;85.71
13796;SHT30;40911;51.552;9.874;2023-04-06T04:42:49;-1.91;85.36
13796;SHT30;40911;51.552;9.874;2023-04-06T04:45:11;-1.91;85.80
13796;SHT30;40911;51.552;9.874;2023-04-06T04:47:33;-1.93;85.25
13796;SHT30;40911;51.552;9.874;2023-04-06T04:49:54;-1.90;85.24
13796;SHT30;40911;51.552;9.874;2023-04-06T04:52:16;-1.83;84.43
13796;SHT30;40911;51.552;9.874;2023-04-06T04:54:37;-1.79;83.85
13796;SHT30;40911;51.552;9.874;2023-04-06T04:57:01;-1.94;85.04
13796;SHT30;40911;51.552;9.874;2023-04-06T04:59:24;-1.97;85.34
13796;SHT30;40911;51.552;9.874;2023-04-06T05:01:45;-1.83;84.79
13796;SHT30;40911;51.552;9.874;2023-04-06T05:04:07;-1.93;85.69
13796;SHT30;40911;51.552;9.874;2023-04-06T05:06:28;-1.89;85.12
13796;SHT30;40911;51.552;9.874;2023-04-06T05:08:50;-1.87;85.21
13796;SHT30;40911;51.552;9.874;2023-04-06T05:11:12;-1.90;85.98
13796;SHT30;40911;51.552;9.874;2023-04-06T05:13:33;-2.00;86.72
13796;SHT30;40911;51.552;9.874;2023-04-06T05:15:56;-1.73;84.74
13796;SHT30;40911;51.552;9.874;2023-04-06T05:18:18;-1.70;84.48
13796;SHT30;40911;51.552;9.874;2023-04-06T05:20:39;-1.82;85.15
13796;SHT30;40911;51.552;9.874;2023-04-06T05:23:01;-1.79;85.64
13796;SHT30;40911;51.552;9.874;2023-04-06T05:25:22;-1.72;85.09
13796;SHT30;40911;51.552;9.874;2023-04-06T05:27:44;-1.66;84.38
13796;SHT30;40911;51.552;9.874;2023-04-06T05:30:07;-1.66;85.28
13796;SHT30;40911;51.552;9.874;2023-04-06T05:32:30;-1.68;85.62
13796;SHT30;40911;51.552;9.874;2023-04-06T05:34:52;-1.55;84.97
13796;SHT30;40911;51.552;9.874;2023-04-06T05:37:13;-1.47;84.70
13796;SHT30;40911;51.552;9.874;2023-04-06T05:39:35;-1.30;83.89
13796;SHT30;40911;51.552;9.874;2023-04-06T05:41:56;-1.39;85.27
13796;SHT30;40911;51.552;9.874;2023-04-06T05:44:18;-1.31;84.57
13796;SHT30;40911;51.552;9.874;2023-04-06T05:46:39;-1.18;84.02
13796;SHT30;40911;51.552;9.874;2023-04-06T05:49:02;-1.14;84.44
13796;SHT30;40911;51.552;9.874;2023-04-06T05:51:24;-1.17;84.94
13796;SHT30;40911;51.552;9.874;2023-04-06T05:53:47;-1.10;84.80
13796;SHT30;40911;51.552;9.874;2023-04-06T05:56:08;-1.09;85.50
13796;SHT30;40911;51.552;9.874;2023-04-06T05:58:30;-0.91;84.44
13796;SHT30;40911;51.552;9.874;2023-04-06T06:00:56;-0.79;83.92
13796;SHT30;40911;51.552;9.874;2023-04-06T06:03:19;-0.63;83.59
13796;SHT30;40911;51.552;9.874;2023-04-06T06:05:42;-0.61;84.54
13796;SHT30;40911;51.552;9.874;2023-04-06T06:08:03;-0.51;84.20
13796;SHT30;40911;51.552;9.874;2023-04-06T06:10:25;-0.37;84.02
13796;SHT30;40911;51.552;9.874;2023-04-06T06:12:47;-0.14;82.82
13796;SHT30;40911;51.552;9.874;2023-04-06T06:15:09;0.16;82.36
13796;SHT30;40911;51.552;9.874;2023-04-06T06:17:31;0.23;83.04
13796;SHT30;40911;51.552;9.874;2023-04-06T06:19:52;0.38;82.60
13796;SHT30;40911;51.552;9.874;2023-04-06T06:22:15;0.68;82.12
13796;SHT30;40911;51.552;9.874;2023-04-06T06:24:37;0.79;82.22
13796;SHT30;40911;51.552;9.874;2023-04-06T06:26:58;1.17;81.76
13796;SHT30;40911;51.552;9.874;2023-04-06T06:29:20;1.24;82.21
13796;SHT30;40911;51.552;9.874;2023-04-06T06:31:41;1.55;81.16
13796;SHT30;40911;51.552;9.874;2023-04-06T06:34:03;1.78;79.87
13796;SHT30;40911;51.552;9.874;2023-04-06T06:36:25;1.94;78.32
13796;SHT30;40911;51.552;9.874;2023-04-06T06:38:48;1.96;77.61
13796;SHT30;40911;51.552;9.874;2023-04-06T06:41:10;2.35;77.85
13796;SHT30;40911;51.552;9.874;2023-04-06T06:43:32;2.62;77.20
13796;SHT30;40911;51.552;9.874;2023-04-06T06:45:53;2.38;76.12
13796;SHT30;40911;51.552;9.874;2023-04-06T06:48:15;2.64;77.53
13796;SHT30;40911;51.552;9.874;2023-04-06T06:50:36;2.87;77.05
13796;SHT30;40911;51.552;9.874;2023-04-06T06:52:58;3.14;76.41
13796;SHT30;40911;51.552;9.874;2023-04-06T06:55:21;3.32;77.25
13796;SHT30;40911;51.552;9.874;2023-04-06T06:57:42;3.47;76.10
13796;SHT30;40911;51.552;9.874;2023-04-06T07:00:07;3.03;75.00
13796;SHT30;40911;51.552;9.874;2023-04-06T07:02:29;3.75;76.46
13796;SHT30;40911;51.552;9.874;2023-04-06T07:04:51;3.52;74.31
13796;SHT30;40911;51.552;9.874;2023-04-06T07:07:12;3.76;73.35
13796;SHT30;40911;51.552;9.874;2023-04-06T07:09:34;3.78;73.46
13796;SHT30;40911;51.552;9.874;2023-04-06T07:11:57;3.69;71.68
13796;SHT30;40911;51.552;9.874;2023-04-06T07:14:19;3.96;71.91
13796;SHT30;40911;51.552;9.874;2023-04-06T07:16:40;4.14;71.06
13796;SHT30;40911;51.552;9.874;2023-04-06T07:19:02;4.45;70.29
13796;SHT30;40911;51.552;9.874;2023-04-06T07:21:24;4.62;70.38
13796;SHT30;40911;51.552;9.874;2023-04-06T07:23:46;4.97;69.85
13796;SHT30;40911;51.552;9.874;2023-04-06T07:26:09;4.68;68.62
13796;SHT30;40911;51.552;9.874;2023-04-06T07:28:31;4.73;69.54
13796;SHT30;40911;51.552;9.874;2023-04-06T07:30:53;4.80;67.91
13796;SHT30;40911;51.552;9.874;2023-04-06T07:33:15;5.13;68.80
13796;SHT30;40911;51.552;9.874;2023-04-06T07:35:37;5.58;67.86
13796;SHT30;40911;51.552;9.874;2023-04-06T07:37:58;5.81;67.44
13796;SHT30;40911;51.552;9.874;2023-04-06T07:40:20;6.03;67.61
13796;SHT30;40911;51.552;9.874;2023-04-06T07:42:42;5.56;65.94
13796;SHT30;40911;51.552;9.874;2023-04-06T07:45:06;5.66;66.66
13796;SHT30;40911;51.552;9.874;2023-04-06T07:47:27;5.48;66.74
13796;SHT30;40911;51.552;9.874;2023-04-06T07:49:49;6.10;67.48
13796;SHT30;40911;51.552;9.874;2023-04-06T07:52:11;6.40;66.52
13796;SHT30;40911;51.552;9.874;2023-04-06T07:54:32;5.75;65.93
13796;SHT30;40911;51.552;9.874;2023-04-06T07:56:54;6.82;65.89
13796;SHT30;40911;51.552;9.874;2023-04-06T07:59:16;6.71;65.39
13796;SHT30;40911;51.552;9.874;2023-04-06T08:01:38;6.72;64.86
13796;SHT30;40911;51.552;9.874;2023-04-06T08:04:00;7.03;64.30
13796;SHT30;40911;51.552;9.874;2023-04-06T08:06:22;7.47;63.83
13796;SHT30;40911;51.552;9.874;2023-04-06T08:08:44;7.32;64.70
13796;SHT30;40911;51.552;9.874;2023-04-06T08:11:05;7.93;63.60
13796;SHT30;40911;51.552;9.874;2023-04-06T08:13:27;6.99;64.01
13796;SHT30;40911;51.552;9.874;2023-04-06T08:15:49;7.96;63.45
13796;SHT30;40911;51.552;9.874;2023-04-06T08:18:12;7.97;62.79
13796;SHT30;40911;51.552;9.874;2023-04-06T08:20:34;8.24;62.58
13796;SHT30;40911;51.552;9.874;2023-04-06T08:22:56;8.06;61.81
13796;SHT30;40911;51.552;9.874;2023-04-06T08:25:18;7.54;61.60
13796;SHT30;40911;51.552;9.874;2023-04-06T08:27:39;7.58;62.83
13796;SHT30;40911;51.552;9.874;2023-04-06T08:30:01;8.58;62.84
13796;SHT30;40911;51.552;9.874;2023-04-06T08:32:22;9.21;62.28
13796;SHT30;40911;51.552;9.874;2023-04-06T08:34:46;8.27;61.72
13796;SHT30;40911;51.552;9.874;2023-04-06T08:37:07;8.99;60.98
13796;SHT30;40911;51.552;9.874;2023-04-06T08:39:29;9.00;61.28
13796;SHT30;40911;51.552;9.874;2023-04-06T08:41:51;9.26;59.15
13796;SHT30;40911;51.552;9.874;2023-04-06T08:44:13;9.19;59.28
13796;SHT30;40911;51.552;9.874;2023-04-06T08:46:34;9.34;58.62
13796;SHT30;40911;51.552;9.874;2023-04-06T08:48:56;9.37;58.94
13796;SHT30;40911;51.552;9.874;2023-04-06T08:51:19;9.24;58.43
13796;SHT30;40911;51.552;9.874;2023-04-06T08:53:41;10.00;57.63
13796;SHT30;40911;51.552;9.874;2023-04-06T08:56:04;10.07;57.54
13796;SHT30;40911;51.552;9.874;2023-04-06T08:58:28;10.42;56.67
13796;SHT30;40911;51.552;9.874;2023-04-06T09:00:52;10.02;55.63
13796;SHT30;40911;51.552;9.874;2023-04-06T09:03:14;10.07;56.61
13796;SHT30;40911;51.552;9.874;2023-04-06T09:05:36;10.27;55.40
13796;SHT30;40911;51.552;9.874;2023-04-06T09:07:59;10.27;55.89
13796;SHT30;40911;51.552;9.874;2023-04-06T09:10:20;10.40;55.59
13796;SHT30;40911;51.552;9.874;2023-04-06T09:12:43;10.05;54.86
13796;SHT30;40911;51.552;9.874;2023-04-06T09:15:06;10.55;55.44
13796;SHT30;40911;51.552;9.874;2023-04-06T09:17:38;10.71;54.31
13796;SHT30;40911;51.552;9.874;2023-04-06T09:20:00;11.02;53.76
13796;SHT30;40911;51.552;9.874;2023-04-06T09:22:22;11.19;53.78
13796;SHT30;40911;51.552;9.874;2023-04-06T09:24:47;11.02;54.00
13796;SHT30;40911;51.552;9.874;2023-04-06T09:27:09;11.93;53.60
13796;SHT30;40911;51.552;9.874;2023-04-06T09:29:31;11.28;53.94
13796;SHT30;40911;51.552;9.874;2023-04-06T09:32:02;11.92;54.31
13796;SHT30;40911;51.552;9.874;2023-04-06T09:34:24;11.68;52.79
13796;SHT30;40911;51.552;9.874;2023-04-06T09:36:45;11.12;51.53
13796;SHT30;40911;51.552;9.874;2023-04-06T09:39:07;11.65;52.42
13796;SHT30;40911;51.552;9.874;2023-04-06T09:41:31;11.28;52.66
13796;SHT30;40911;51.552;9.874;2023-04-06T09:44:02;11.54;51.92
13796;SHT30;40911;51.552;9.874;2023-04-06T09:46:24;11.65;51.08
13796;SHT30;40911;51.552;9.874;2023-04-06T09:48:46;11.68;49.70
13796;SHT30;40911;51.552;9.874;2023-04-06T09:51:09;11.40;50.68
13796;SHT30;40911;51.552;9.874;2023-04-06T09:53:35;11.50;50.57
13796;SHT30;40911;51.552;9.874;2023-04-06T09:56:02;11.55;50.50
13796;SHT30;40911;51.552;9.874;2023-04-06T09:58:25;11.43;52.08
13796;SHT30;40911;51.552;9.874;2023-04-06T10:00:50;11.98;49.06
13796;SHT30;40911;51.552;9.874;2023-04-06T10:03:17;12.02;48.63
13796;SHT30;40911;51.552;9.874;2023-04-06T10:05:44;12.22;47.81
13796;SHT30;40911;51.552;9.874;2023-04-06T10:08:10;11.90;47.06
13796;SHT30;40911;51.552;9.874;2023-04-06T10:10:31;11.93;46.28
13796;SHT30;40911;51.552;9.874;2023-04-06T10:12:53;12.57;47.02
13796;SHT30;40911;51.552;9.874;2023-04-06T10:15:17;12.36;46.13
13796;SHT30;40911;51.552;9.874;2023-04-06T10:17:38;12.13;46.70
13796;SHT30;40911;51.552;9.874;2023-04-06T10:20:06;12.81;47.31
13796;SHT30;40911;51.552;9.874;2023-04-06T10:22:32;12.41;46.78
13796;SHT30;40911;51.552;9.874;2023-04-06T10:24:58;12.65;46.40
13796;SHT30;40911;51.552;9.874;2023-04-06T10:27:27;13.08;46.15
13796;SHT30;40911;51.552;9.874;2023-04-06T10:29:50;13.16;47.17
13796;SHT30;40911;51.552;9.874;2023-04-06T10:32:12;13.23;46.35
13796;SHT30;40911;51.552;9.874;2023-04-06T10:34:34;12.50;45.92
13796;SHT30;40911;51.552;9.874;2023-04-06T10:36:56;12.79;45.97
13796;SHT30;40911;51.552;9.874;2023-04-06T10:39:24;12.98;46.08
13796;SHT30;40911;51.552;9.874;2023-04-06T10:41:47;12.96;46.79
13796;SHT30;40911;51.552;9.874;2023-04-06T10:44:17;13.02;45.10
13796;SHT30;40911;51.552;9.874;2023-04-06T10:46:38;12.72;46.32
13796;SHT30;40911;51.552;9.874;2023-04-06T10:49:11;12.44;46.04
13796;SHT30;40911;51.552;9.874;2023-04-06T10:51:38;12.75;45.29
13796;SHT30;40911;51.552;9.874;2023-04-06T10:54:00;12.74;47.27
13796;SHT30;40911;51.552;9.874;2023-04-06T10:56:25;12.74;47.59
13796;SHT30;40911;51.552;9.874;2023-04-06T10:58:50;13.13;47.77
13796;SHT30;40911;51.552;9.874;2023-04-06T11:01:14;13.36;46.96
13796;SHT30;40911;51.552;9.874;2023-04-06T11:03:42;13.51;47.12
13796;SHT30;40911;51.552;9.874;2023-04-06T11:06:06;13.85;46.64
13796;SHT30;40911;51.552;9.874;2023-04-06T11:08:30;13.41;46.00
13796;SHT30;40911;51.552;9.874;2023-04-06T11:10:51;13.70;47.23
13796;SHT30;40911;51.552;9.874;2023-04-06T11:13:13;13.08;47.60
13796;SHT30;40911;51.552;9.874;2023-04-06T11:15:35;13.34;47.66
13796;SHT30;40911;51.552;9.874;2023-04-06T11:17:56;12.84;46.99
13796;SHT30;40911;51.552;9.874;2023-04-06T11:20:18;13.55;47.58
13796;SHT30;40911;51.552;9.874;2023-04-06T11:22:49;13.61;47.65
13796;SHT30;40911;51.552;9.874;2023-04-06T11:25:11;13.22;46.56
13796;SHT30;40911;51.552;9.874;2023-04-06T11:27:34;12.95;46.00
13796;SHT30;40911;51.552;9.874;2023-04-06T11:29:55;13.55;46.99
13796;SHT30;40911;51.552;9.874;2023-04-06T11:32:21;14.06;46.35
13796;SHT30;40911;51.552;9.874;2023-04-06T11:34:47;13.89;46.49
13796;SHT30;40911;51.552;9.874;2023-04-06T11:37:10;13.15;47.87
13796;SHT30;40911;51.552;9.874;2023-04-06T11:39:38;14.08;46.86
13796;SHT30;40911;51.552;9.874;2023-04-06T11:42:01;14.12;47.35
13796;SHT30;40911;51.552;9.874;2023-04-06T11:44:33;14.30;45.72
13796;SHT30;40911;51.552;9.874;2023-04-06T11:46:56;14.50;45.17
13796;SHT30;40911;51.552;9.874;2023-04-06T11:49:18;14.13;46.44
13796;SHT30;40911;51.552;9.874;2023-04-06T11:51:39;14.15;46.55
13796;SHT30;40911;51.552;9.874;2023-04-06T11:54:01;14.57;46.00
13796;SHT30;40911;51.552;9.874;2023-04-06T11:56:25;14.15;45.14
13796;SHT30;40911;51.552;9.874;2023-04-06T11:58:47;14.33;45.27
13796;SHT30;40911;51.552;9.874;2023-04-06T12:01:08;14.54;44.67
13796;SHT30;40911;51.552;9.874;2023-04-06T12:03:30;14.25;44.34
13796;SHT30;40911;51.552;9.874;2023-04-06T12:05:51;14.10;43.85
13796;SHT30;40911;51.552;9.874;2023-04-06T12:08:13;14.16;45.66
13796;SHT30;40911;51.552;9.874;2023-04-06T12:10:34;14.53;46.16
13796;SHT30;40911;51.552;9.874;2023-04-06T12:12:57;14.52;43.60
13796;SHT30;40911;51.552;9.874;2023-04-06T12:15:19;14.88;43.95
13796;SHT30;40911;51.552;9.874;2023-04-06T12:17:40;14.61;45.39
13796;SHT30;40911;51.552;9.874;2023-04-06T12:20:02;14.34;46.49
13796;SHT30;40911;51.552;9.874;2023-04-06T12:22:24;14.04;45.39
13796;SHT30;40911;51.552;9.874;2023-04-06T12:24:46;14.25;45.17
13796;SHT30;40911;51.552;9.874;2023-04-06T12:27:08;14.30;44.59
13796;SHT30;40911;51.552;9.874;2023-04-06T12:29:33;14.44;44.35
13796;SHT30;40911;51.552;9.874;2023-04-06T12:31:54;13.92;44.16
13796;SHT30;40911;51.552;9.874;2023-04-06T12:34:16;14.81;45.69
13796;SHT30;40911;51.552;9.874;2023-04-06T12:36:38;14.77;44.96
13796;SHT30;40911;51.552;9.874;2023-04-06T12:39:00;15.04;44.52
13796;SHT30;40911;51.552;9.874;2023-04-06T12:41:23;14.49;42.54
13796;SHT30;40911;51.552;9.874;2023-04-06T12:43:48;14.85;44.02
13796;SHT30;40911;51.552;9.874;2023-04-06T12:46:11;14.70;43.58
13796;SHT30;40911;51.552;9.874;2023-04-06T12:48:33;15.43;43.54
13796;SHT30;40911;51.552;9.874;2023-04-06T12:50:57;14.78;42.10
13796;SHT30;40911;51.552;9.874;2023-04-06T12:53:18;14.99;42.91
13796;SHT30;40911;51.552;9.874;2023-04-06T12:55:40;14.68;43.37
13796;SHT30;40911;51.552;9.874;2023-04-06T12:58:01;15.04;42.92
13796;SHT30;40911;51.552;9.874;2023-04-06T13:00:23;15.49;44.07
13796;SHT30;40911;51.552;9.874;2023-04-06T13:02:47;15.36;43.62
13796;SHT30;40911;51.552;9.874;2023-04-06T13:05:09;15.52;42.61
13796;SHT30;40911;51.552;9.874;2023-04-06T13:07:30;14.83;43.37
13796;SHT30;40911;51.552;9.874;2023-04-06T13:09:52;15.57;42.99
13796;SHT30;40911;51.552;9.874;2023-04-06T13:12:14;14.29;41.41
13796;SHT30;40911;51.552;9.874;2023-04-06T13:14:35;14.78;41.79
13796;SHT30;40911;51.552;9.874;2023-04-06T13:16:57;14.34;43.45
13796;SHT30;40911;51.552;9.874;2023-04-06T13:19:20;14.39;43.30
13796;SHT30;40911;51.552;9.874;2023-04-06T13:21:41;14.60;43.66
13796;SHT30;40911;51.552;9.874;2023-04-06T13:24:03;15.04;42.84
13796;SHT30;40911;51.552;9.874;2023-04-06T13:26:25;15.20;43.86
13796;SHT30;40911;51.552;9.874;2023-04-06T13:28:46;15.20;43.93
13796;SHT30;40911;51.552;9.874;2023-04-06T13:31:08;15.40;44.02
13796;SHT30;40911;51.552;9.874;2023-04-06T13:33:30;15.09;42.89
13796;SHT30;40911;51.552;9.874;2023-04-06T13:35:53;15.18;41.85
13796;SHT30;40911;51.552;9.874;2023-04-06T13:38:15;14.94;41.74
13796;SHT30;40911;51.552;9.874;2023-04-06T13:40:38;14.73;42.63
13796;SHT30;40911;51.552;9.874;2023-04-06T13:43:00;14.98;43.39
13796;SHT30;40911;51.552;9.874;2023-04-06T13:45:21;15.50;43.63
13796;SHT30;40911;51.552;9.874;2023-04-06T13:47:43;14.96;43.72
13796;SHT30;40911;51.552;9.874;2023-04-06T13:50:05;15.19;43.14
13796;SHT30;40911;51.552;9.874;2023-04-06T13:52:28;15.63;43.19
13796;SHT30;40911;51.552;9.874;2023-04-06T13:54:49;14.83;42.90
13796;SHT30;40911;51.552;9.874;2023-04-06T13:57:11;15.22;42.81
13796;SHT30;40911;51.552;9.874;2023-04-06T13:59:33;15.40;43.97
13796;SHT30;40911;51.552;9.874;2023-04-06T14:01:54;15.19;42.79
13796;SHT30;40911;51.552;9.874;2023-04-06T14:04:16;14.65;43.00
13796;SHT30;40911;51.552;9.874;2023-04-06T14:06:38;14.61;43.77
13796;SHT30;40911;51.552;9.874;2023-04-06T14:09:01;15.08;42.88
13796;SHT30;40911;51.552;9.874;2023-04-06T14:11:22;15.91;43.15
13796;SHT30;40911;51.552;9.874;2023-04-06T14:13:44;15.29;42.40
13796;SHT30;40911;51.552;9.874;2023-04-06T14:16:06;15.52;42.26
13796;SHT30;40911;51.552;9.874;2023-04-06T14:18:28;14.85;43.85
13796;SHT30;40911;51.552;9.874;2023-04-06T14:20:54;14.57;43.35
13796;SHT30;40911;51.552;9.874;2023-04-06T14:23:16;14.95;43.96
13796;SHT30;40911;51.552;9.874;2023-04-06T14:25:39;15.13;43.96
13796;SHT30;40911;51.552;9.874;2023-04-06T14:28:01;14.89;44.61
13796;SHT30;40911;51.552;9.874;2023-04-06T14:30:22;15.43;43.95
13796;SHT30;40911;51.552;9.874;2023-04-06T14:32:44;15.71;42.84
13796;SHT30;40911;51.552;9.874;2023-04-06T14:35:06;15.50;42.16
13796;SHT30;40911;51.552;9.874;2023-04-06T14:37:27;15.87;41.95
13796;SHT30;40911;51.552;9.874;2023-04-06T14:39:49;16.24;42.66
13796;SHT30;40911;51.552;9.874;2023-04-06T14:42:12;15.64;42.10
13796;SHT30;40911;51.552;9.874;2023-04-06T14:44:34;15.80;42.06
13796;SHT30;40911;51.552;9.874;2023-04-06T14:46:56;16.40;42.58
13796;SHT30;40911;51.552;9.874;2023-04-06T14:49:18;15.61;42.39
13796;SHT30;40911;51.552;9.874;2023-04-06T14:51:39;16.15;42.26
13796;SHT30;40911;51.552;9.874;2023-04-06T14:54:02;16.18;42.82
13796;SHT30;40911;51.552;9.874;2023-04-06T14:56:24;15.82;42.91
13796;SHT30;40911;51.552;9.874;2023-04-06T14:58:47;16.38;43.02
13796;SHT30;40911;51.552;9.874;2023-04-06T15:01:08;15.81;40.97
13796;SHT30;40911;51.552;9.874;2023-04-06T15:03:30;16.15;39.50
13796;SHT30;40911;51.552;9.874;2023-04-06T15:05:52;16.05;39.06
13796;SHT30;40911;51.552;9.874;2023-04-06T15:08:13;15.95;39.02